sensor_id;sensor_type;location;lat;lon;timestamp;pressure;altitude;pressure_sealevel;temperature;humidity
49072;BME280;52656;52.610;10.236;2023-11-19T00:02:08;100529.03;;;9.36;76.29
49072;BME280;52656;52.610;10.236;2023-11-19T00:04:36;100522.72;;;9.62;74.80
49072;BME280;52656;52.610;10.236;2023-11-19T00:07:02;100529.22;;;9.53;74.38
49072;BME280;52656;52.610;10.236;2023-11-19T00:09:29;100516.09;;;9.74;74.54
49072;BME280;52656;52.610;10.236;2023-11-19T00:11:55;100507.41;;;9.70;74.22
49072;BME280;52656;52.610;10.236;2023-11-19T00:14:20;100511.16;;;9.64;73.66
49072;BME280;52656;52.610;10.236;2023-11-19T00:16:46;100490.78;;;9.66;75.39
49072;BME280;52656;52.610;10.236;2023-11-19T00:19:11;100493.06;;;9.76;74.16
49072;BME280;52656;52.610;10.236;2023-11-19T00:21:37;100487.06;;;9.72;74.40
49072;BME280;52656;52.610;10.236;2023-11-19T00:24:02;100475.47;;;9.75;73.63
49072;BME280;52656;52.610;10.236;2023-11-19T00:26:27;100480.25;;;9.45;75.11
49072;BME280;52656;52.610;10.236;2023-11-19T00:28:52;100477.16;;;9.77;74.57
49072;BME280;52656;52.610;10.236;2023-11-19T00:31:18;100472.06;;;9.95;74.47
49072;BME280;52656;52.610;10.236;2023-11-19T00:33:43;100450.75;;;9.76;74.26
49072;BME280;52656;52.610;10.236;2023-11-19T00:36:09;100456.00;;;9.55;76.13
49072;BME280;52656;52.610;10.236;2023-11-19T00:38:34;100453.59;;;9.71;75.30
49072;BME280;52656;52.610;10.236;2023-11-19T00:40:59;100405.09;;;21.07;47.82
49072;BME280;52656;52.610;10.236;2023-11-19T00:43:25;100380.16;;;21.15;39.92
49072;BME280;52656;52.610;10.236;2023-11-19T00:45:51;100414.28;;;16.52;47.26
49072;BME280;52656;52.610;10.236;2023-11-19T00:48:16;100415.97;;;16.15;48.97
49072;BME280;52656;52.610;10.236;2023-11-19T00:50:42;100406.19;;;15.62;49.71
49072;BME280;52656;52.610;10.236;2023-11-19T00:53:10;100393.31;;;14.71;51.67
49072;BME280;52656;52.610;10.236;2023-11-19T00:55:35;100390.94;;;13.48;55.16
49072;BME280;52656;52.610;10.236;2023-11-19T00:58:01;100376.03;;;13.76;55.44
49072;BME280;52656;52.610;10.236;2023-11-19T01:00:26;100360.84;;;13.62;55.56
49072;BME280;52656;52.610;10.236;2023-11-19T01:02:53;100349.69;;;12.78;57.92
49072;BME280;52656;52.610;10.236;2023-11-19T01:05:19;100353.19;;;13.26;57.41
49072;BME280;52656;52.610;10.236;2023-11-19T01:07:47;100349.78;;;13.23;57.17
49072;BME280;52656;52.610;10.236;2023-11-19T01:10:13;100351.50;;;13.09;57.35
49072;BME280;52656;52.610;10.236;2023-11-19T01:12:38;100353.97;;;13.12;57.48
49072;BME280;52656;52.610;10.236;2023-11-19T01:15:05;100352.03;;;13.00;57.44
49072;BME280;52656;52.610;10.236;2023-11-19T01:17:30;100335.25;;;13.29;56.97
49072;BME280;52656;52.610;10.236;2023-11-19T01:19:56;100329.03;;;13.14;57.70
49072;BME280;52656;52.610;10.236;2023-11-19T01:22:22;100325.97;;;12.90;58.24
49072;BME280;52656;52.610;10.236;2023-11-19T01:24:48;100315.75;;;12.34;59.63
49072;BME280;52656;52.610;10.236;2023-11-19T01:27:13;100316.31;;;13.19;57.79
49072;BME280;52656;52.610;10.236;2023-11-19T01:29:38;100307.13;;;13.25;57.28
49072;BME280;52656;52.610;10.236;2023-11-19T01:32:04;100307.16;;;12.93;57.82
49072;BME280;52656;52.610;10.236;2023-11-19T01:34:30;100291.38;;;13.22;57.32
49072;BME280;52656;52.610;10.236;2023-11-19T01:36:55;100289.63;;;13.21;56.89
49072;BME280;52656;52.610;10.236;2023-11-19T01:39:21;100291.59;;;13.63;55.84
49072;BME280;52656;52.610;10.236;2023-11-19T01:41:46;100292.75;;;13.13;57.13
49072;BME280;52656;52.610;10.236;2023-11-19T01:44:11;100284.66;;;13.15;57.44
49072;BME280;52656;52.610;10.236;2023-11-19T01:46:44;100263.09;;;13.35;56.99
49072;BME280;52656;52.610;10.236;2023-11-19T01:49:14;100260.06;;;13.11;57.53
49072;BME280;52656;52.610;10.236;2023-11-19T01:51:39;100257.97;;;13.16;57.53
49072;BME280;52656;52.610;10.236;2023-11-19T01:54:05;100256.13;;;13.03;57.83
49072;BME280;52656;52.610;10.236;2023-11-19T01:56:32;100255.03;;;13.37;56.82
49072;BME280;52656;52.610;10.236;2023-11-19T01:58:59;100252.56;;;13.48;56.86
49072;BME280;52656;52.610;10.236;2023-11-19T02:01:24;100252.84;;;13.43;56.68
49072;BME280;52656;52.610;10.236;2023-11-19T02:03:51;100241.56;;;13.40;56.80
49072;BME280;52656;52.610;10.236;2023-11-19T02:06:17;100237.69;;;13.30;57.12
49072;BME280;52656;52.610;10.236;2023-11-19T02:08:42;100234.78;;;13.48;56.72
49072;BME280;52656;52.610;10.236;2023-11-19T02:11:08;100221.94;;;13.71;56.30
49072;BME280;52656;52.610;10.236;2023-11-19T02:13:34;100216.28;;;13.61;57.04
49072;BME280;52656;52.610;10.236;2023-11-19T02:16:03;100203.97;;;13.75;57.63
49072;BME280;52656;52.610;10.236;2023-11-19T02:18:28;100197.81;;;13.44;57.64
49072;BME280;52656;52.610;10.236;2023-11-19T02:20:55;100195.63;;;13.95;56.60
49072;BME280;52656;52.610;10.236;2023-11-19T02:23:21;100191.59;;;14.02;56.17
49072;BME280;52656;52.610;10.236;2023-11-19T02:28:23;100203.31;;;14.00;56.17
49072;BME280;52656;52.610;10.236;2023-11-19T02:30:49;100188.59;;;14.08;55.70
49072;BME280;52656;52.610;10.236;2023-11-19T02:33:14;100179.50;;;14.25;55.81
49072;BME280;52656;52.610;10.236;2023-11-19T02:35:40;100179.91;;;14.05;56.76
49072;BME280;52656;52.610;10.236;2023-11-19T02:38:06;100173.66;;;13.91;57.49
49072;BME280;52656;52.610;10.236;2023-11-19T02:40:32;100166.22;;;13.96;57.15
49072;BME280;52656;52.610;10.236;2023-11-19T02:42:57;100166.56;;;14.19;57.17
49072;BME280;52656;52.610;10.236;2023-11-19T02:45:23;100159.19;;;14.10;57.45
49072;BME280;52656;52.610;10.236;2023-11-19T02:47:49;100152.44;;;13.76;58.84
49072;BME280;52656;52.610;10.236;2023-11-19T02:50:15;100155.09;;;13.61;59.99
49072;BME280;52656;52.610;10.236;2023-11-19T02:52:44;100131.13;;;13.61;59.01
49072;BME280;52656;52.610;10.236;2023-11-19T02:55:11;100129.66;;;13.71;60.11
49072;BME280;52656;52.610;10.236;2023-11-19T02:57:40;100122.75;;;13.53;60.02
49072;BME280;52656;52.610;10.236;2023-11-19T03:00:22;100114.78;;;13.53;61.55
49072;BME280;52656;52.610;10.236;2023-11-19T03:02:57;100108.88;;;14.05;59.28
49072;BME280;52656;52.610;10.236;2023-11-19T03:05:35;100116.72;;;13.65;60.48
49072;BME280;52656;52.610;10.236;2023-11-19T03:08:00;100111.75;;;13.59;60.66
49072;BME280;52656;52.610;10.236;2023-11-19T03:10:25;100104.53;;;13.76;61.62
49072;BME280;52656;52.610;10.236;2023-11-19T03:12:51;100095.69;;;14.16;59.88
49072;BME280;52656;52.610;10.236;2023-11-19T03:15:16;100086.47;;;14.22;59.14
49072;BME280;52656;52.610;10.236;2023-11-19T03:17:42;100099.94;;;14.33;58.86
49072;BME280;52656;52.610;10.236;2023-11-19T03:20:09;100083.44;;;13.87;59.64
49072;BME280;52656;52.610;10.236;2023-11-19T03:22:38;100083.25;;;13.76;61.91
49072;BME280;52656;52.610;10.236;2023-11-19T03:25:04;100073.81;;;13.84;61.03
49072;BME280;52656;52.610;10.236;2023-11-19T03:27:29;100075.00;;;13.66;62.74
49072;BME280;52656;52.610;10.236;2023-11-19T03:29:54;100071.13;;;13.98;61.93
49072;BME280;52656;52.610;10.236;2023-11-19T03:32:20;100082.13;;;14.34;60.65
49072;BME280;52656;52.610;10.236;2023-11-19T03:34:45;100067.84;;;13.81;62.54
49072;BME280;52656;52.610;10.236;2023-11-19T03:37:10;100063.84;;;13.88;61.94
49072;BME280;52656;52.610;10.236;2023-11-19T03:39:36;100060.38;;;14.00;62.44
49072;BME280;52656;52.610;10.236;2023-11-19T03:42:01;100059.16;;;13.91;63.21
49072;BME280;52656;52.610;10.236;2023-11-19T03:44:27;100059.53;;;14.00;63.65
49072;BME280;52656;52.610;10.236;2023-11-19T03:46:52;100067.84;;;14.22;62.26
49072;BME280;52656;52.610;10.236;2023-11-19T03:49:18;100062.28;;;14.25;62.11
49072;BME280;52656;52.610;10.236;2023-11-19T03:51:43;100065.09;;;14.36;62.12
49072;BME280;52656;52.610;10.236;2023-11-19T03:54:08;100061.88;;;14.58;61.09
49072;BME280;52656;52.610;10.236;2023-11-19T03:56:33;100062.81;;;14.57;61.10
49072;BME280;52656;52.610;10.236;2023-11-19T03:58:59;100052.84;;;14.34;62.74
49072;BME280;52656;52.610;10.236;2023-11-19T04:01:24;100064.06;;;14.52;61.34
49072;BME280;52656;52.610;10.236;2023-11-19T04:03:49;100054.94;;;14.68;60.42
49072;BME280;52656;52.610;10.236;2023-11-19T04:06:15;100046.69;;;14.73;60.63
49072;BME280;52656;52.610;10.236;2023-11-19T04:08:40;100057.44;;;14.84;59.82
49072;BME280;52656;52.610;10.236;2023-11-19T04:11:06;100049.44;;;14.32;61.96
49072;BME280;52656;52.610;10.236;2023-11-19T04:13:31;100040.00;;;14.66;61.60
49072;BME280;52656;52.610;10.236;2023-11-19T04:15:57;100041.25;;;15.00;60.24
49072;BME280;52656;52.610;10.236;2023-11-19T04:18:22;100048.63;;;14.96;60.13
49072;BME280;52656;52.610;10.236;2023-11-19T04:20:48;100023.66;;;14.58;61.72
49072;BME280;52656;52.610;10.236;2023-11-19T04:23:13;100040.25;;;14.76;61.85
49072;BME280;52656;52.610;10.236;2023-11-19T04:25:39;100033.59;;;14.56;62.56
49072;BME280;52656;52.610;10.236;2023-11-19T04:28:04;100026.00;;;15.02;61.54
49072;BME280;52656;52.610;10.236;2023-11-19T04:30:29;100018.31;;;14.97;60.92
49072;BME280;52656;52.610;10.236;2023-11-19T04:32:57;100026.00;;;14.77;61.84
49072;BME280;52656;52.610;10.236;2023-11-19T04:35:22;100021.75;;;14.99;61.84
49072;BME280;52656;52.610;10.236;2023-11-19T04:37:48;100025.34;;;14.73;62.96
49072;BME280;52656;52.610;10.236;2023-11-19T04:40:14;100035.59;;;15.05;61.98
49072;BME280;52656;52.610;10.236;2023-11-19T04:42:39;100042.44;;;15.21;60.62
49072;BME280;52656;52.610;10.236;2023-11-19T04:45:06;100034.09;;;15.13;60.93
49072;BME280;52656;52.610;10.236;2023-11-19T04:47:32;100041.88;;;15.16;61.61
49072;BME280;52656;52.610;10.236;2023-11-19T04:49:57;100033.22;;;14.74;63.07
49072;BME280;52656;52.610;10.236;2023-11-19T04:52:23;100022.00;;;14.69;64.11
49072;BME280;52656;52.610;10.236;2023-11-19T04:54:48;100021.75;;;15.12;61.64
49072;BME280;52656;52.610;10.236;2023-11-19T04:57:13;100014.47;;;15.02;62.26
49072;BME280;52656;52.610;10.236;2023-11-19T04:59:39;100019.34;;;15.33;61.51
49072;BME280;52656;52.610;10.236;2023-11-19T05:02:05;100032.16;;;15.41;60.32
49072;BME280;52656;52.610;10.236;2023-11-19T05:04:31;100014.47;;;15.02;62.47
49072;BME280;52656;52.610;10.236;2023-11-19T05:06:56;100012.41;;;14.67;64.09
49072;BME280;52656;52.610;10.236;2023-11-19T05:09:22;100014.50;;;14.62;64.67
49072;BME280;52656;52.610;10.236;2023-11-19T05:11:48;100020.19;;;14.70;64.54
49072;BME280;52656;52.610;10.236;2023-11-19T05:14:13;100008.41;;;15.12;63.52
49072;BME280;52656;52.610;10.236;2023-11-19T05:16:40;99998.19;;;15.43;61.76
49072;BME280;52656;52.610;10.236;2023-11-19T05:19:05;99998.81;;;15.59;61.47
49072;BME280;52656;52.610;10.236;2023-11-19T05:21:30;99982.16;;;14.81;64.55
49072;BME280;52656;52.610;10.236;2023-11-19T05:23:56;99975.09;;;15.05;63.20
49072;BME280;52656;52.610;10.236;2023-11-19T05:26:23;99976.84;;;14.81;65.42
49072;BME280;52656;52.610;10.236;2023-11-19T05:28:49;99979.31;;;15.33;62.78
49072;BME280;52656;52.610;10.236;2023-11-19T05:31:16;99979.44;;;15.44;62.10
49072;BME280;52656;52.610;10.236;2023-11-19T05:33:41;99980.75;;;15.63;61.74
49072;BME280;52656;52.610;10.236;2023-11-19T05:36:07;99980.31;;;15.19;63.03
49072;BME280;52656;52.610;10.236;2023-11-19T05:38:33;99982.63;;;15.37;63.14
49072;BME280;52656;52.610;10.236;2023-11-19T05:40:59;99984.31;;;15.50;62.50
49072;BME280;52656;52.610;10.236;2023-11-19T05:43:24;99981.50;;;15.52;62.47
49072;BME280;52656;52.610;10.236;2023-11-19T05:45:49;99985.66;;;15.56;62.66
49072;BME280;52656;52.610;10.236;2023-11-19T05:48:15;99987.31;;;15.46;62.76
49072;BME280;52656;52.610;10.236;2023-11-19T05:50:40;99986.81;;;16.02;60.90
49072;BME280;52656;52.610;10.236;2023-11-19T05:53:05;99977.19;;;15.38;62.10
49072;BME280;52656;52.610;10.236;2023-11-19T05:55:34;99983.19;;;15.29;63.77
49072;BME280;52656;52.610;10.236;2023-11-19T05:58:00;99982.50;;;15.51;62.64
49072;BME280;52656;52.610;10.236;2023-11-19T06:00:25;99977.09;;;15.40;62.82
49072;BME280;52656;52.610;10.236;2023-11-19T06:02:51;99978.09;;;15.63;63.24
49072;BME280;52656;52.610;10.236;2023-11-19T06:05:17;99967.91;;;15.68;62.19
49072;BME280;52656;52.610;10.236;2023-11-19T06:07:42;99971.53;;;15.80;61.52
49072;BME280;52656;52.610;10.236;2023-11-19T06:10:07;99984.28;;;15.76;62.77
49072;BME280;52656;52.610;10.236;2023-11-19T06:12:35;99978.47;;;15.69;62.27
49072;BME280;52656;52.610;10.236;2023-11-19T06:15:04;99979.53;;;15.80;62.02
49072;BME280;52656;52.610;10.236;2023-11-19T06:17:30;99979.22;;;16.08;61.12
49072;BME280;52656;52.610;10.236;2023-11-19T06:19:55;99972.72;;;15.99;60.40
49072;BME280;52656;52.610;10.236;2023-11-19T06:22:20;99978.50;;;16.17;59.87
49072;BME280;52656;52.610;10.236;2023-11-19T06:24:46;99976.28;;;16.11;60.30
49072;BME280;52656;52.610;10.236;2023-11-19T06:27:11;99980.50;;;15.79;61.86
49072;BME280;52656;52.610;10.236;2023-11-19T06:29:36;99978.94;;;16.11;60.81
49072;BME280;52656;52.610;10.236;2023-11-19T06:32:02;99992.03;;;16.03;61.61
49072;BME280;52656;52.610;10.236;2023-11-19T06:34:27;99992.91;;;16.04;61.39
49072;BME280;52656;52.610;10.236;2023-11-19T06:36:53;99993.84;;;16.03;61.60
49072;BME280;52656;52.610;10.236;2023-11-19T06:39:18;99995.03;;;15.74;63.46
49072;BME280;52656;52.610;10.236;2023-11-19T06:41:45;99989.59;;;16.00;62.10
49072;BME280;52656;52.610;10.236;2023-11-19T06:44:11;99990.75;;;15.72;62.63
49072;BME280;52656;52.610;10.236;2023-11-19T06:46:37;99994.94;;;15.63;63.41
49072;BME280;52656;52.610;10.236;2023-11-19T06:49:02;99988.63;;;15.77;62.72
49072;BME280;52656;52.610;10.236;2023-11-19T06:51:27;99997.16;;;16.06;61.29
49072;BME280;52656;52.610;10.236;2023-11-19T06:53:53;99994.03;;;16.12;60.77
49072;BME280;52656;52.610;10.236;2023-11-19T06:56:22;99999.88;;;16.17;61.59
49072;BME280;52656;52.610;10.236;2023-11-19T06:58:47;100001.88;;;16.27;60.73
49072;BME280;52656;52.610;10.236;2023-11-19T07:01:14;100002.72;;;16.27;60.82
49072;BME280;52656;52.610;10.236;2023-11-19T07:03:40;100005.19;;;16.41;60.25
49072;BME280;52656;52.610;10.236;2023-11-19T07:06:05;99993.88;;;16.38;60.94
49072;BME280;52656;52.610;10.236;2023-11-19T07:08:30;99999.09;;;16.39;60.79
49072;BME280;52656;52.610;10.236;2023-11-19T07:10:56;100012.56;;;16.27;61.27
49072;BME280;52656;52.610;10.236;2023-11-19T07:13:21;100021.19;;;16.30;60.63
49072;BME280;52656;52.610;10.236;2023-11-19T07:15:46;100022.56;;;16.12;62.38
49072;BME280;52656;52.610;10.236;2023-11-19T07:18:12;100023.31;;;16.14;62.20
49072;BME280;52656;52.610;10.236;2023-11-19T07:20:37;100026.31;;;16.09;62.10
49072;BME280;52656;52.610;10.236;2023-11-19T07:23:03;100028.94;;;16.22;61.94
49072;BME280;52656;52.610;10.236;2023-11-19T07:25:28;100031.78;;;16.32;62.18
49072;BME280;52656;52.610;10.236;2023-11-19T07:27:54;100022.78;;;16.68;60.28
49072;BME280;52656;52.610;10.236;2023-11-19T07:30:19;100025.13;;;16.13;62.89
49072;BME280;52656;52.610;10.236;2023-11-19T07:32:44;100022.09;;;16.77;60.47
49072;BME280;52656;52.610;10.236;2023-11-19T07:35:10;100024.06;;;16.86;59.36
49072;BME280;52656;52.610;10.236;2023-11-19T07:37:35;100020.81;;;17.05;59.40
49072;BME280;52656;52.610;10.236;2023-11-19T07:40:00;100015.56;;;16.92;60.06
49072;BME280;52656;52.610;10.236;2023-11-19T07:42:25;100019.16;;;16.80;60.21
49072;BME280;52656;52.610;10.236;2023-11-19T07:44:51;100022.72;;;16.92;59.90
49072;BME280;52656;52.610;10.236;2023-11-19T07:47:16;100015.09;;;17.21;60.31
49072;BME280;52656;52.610;10.236;2023-11-19T07:49:41;100025.44;;;17.48;59.17
49072;BME280;52656;52.610;10.236;2023-11-19T07:52:09;100024.69;;;17.57;58.60
49072;BME280;52656;52.610;10.236;2023-11-19T07:54:34;100027.13;;;17.38;59.33
49072;BME280;52656;52.610;10.236;2023-11-19T07:56:59;100024.66;;;16.79;62.02
49072;BME280;52656;52.610;10.236;2023-11-19T07:59:25;100017.53;;;17.24;60.57
49072;BME280;52656;52.610;10.236;2023-11-19T08:01:50;100027.16;;;17.49;59.45
49072;BME280;52656;52.610;10.236;2023-11-19T08:04:15;100029.09;;;17.13;60.45
49072;BME280;52656;52.610;10.236;2023-11-19T08:06:40;100028.84;;;17.50;59.49
49072;BME280;52656;52.610;10.236;2023-11-19T08:09:06;100027.88;;;17.51;59.97
49072;BME280;52656;52.610;10.236;2023-11-19T08:11:32;100029.16;;;18.01;57.98
49072;BME280;52656;52.610;10.236;2023-11-19T08:13:57;100022.72;;;17.93;57.84
49072;BME280;52656;52.610;10.236;2023-11-19T08:16:23;100034.22;;;17.61;58.67
49072;BME280;52656;52.610;10.236;2023-11-19T08:18:48;100037.22;;;17.34;60.51
49072;BME280;52656;52.610;10.236;2023-11-19T08:21:13;100022.81;;;18.02;58.53
49072;BME280;52656;52.610;10.236;2023-11-19T08:23:39;100030.78;;;17.70;59.29
49072;BME280;52656;52.610;10.236;2023-11-19T08:26:05;100005.56;;;16.83;60.95
49072;BME280;52656;52.610;10.236;2023-11-19T08:28:31;100029.22;;;17.68;60.11
49072;BME280;52656;52.610;10.236;2023-11-19T08:30:56;100022.28;;;17.76;59.18
49072;BME280;52656;52.610;10.236;2023-11-19T08:33:22;100026.19;;;17.27;61.33
49072;BME280;52656;52.610;10.236;2023-11-19T08:35:47;100025.66;;;17.00;62.85
49072;BME280;52656;52.610;10.236;2023-11-19T08:38:13;100033.72;;;17.22;61.94
49072;BME280;52656;52.610;10.236;2023-11-19T08:40:38;100036.56;;;16.74;63.53
49072;BME280;52656;52.610;10.236;2023-11-19T08:43:03;100038.34;;;17.43;61.06
49072;BME280;52656;52.610;10.236;2023-11-19T08:45:29;100030.03;;;17.57;60.44
49072;BME280;52656;52.610;10.236;2023-11-19T08:47:55;100031.03;;;17.22;61.71
49072;BME280;52656;52.610;10.236;2023-11-19T08:50:20;100031.63;;;17.71;60.14
49072;BME280;52656;52.610;10.236;2023-11-19T08:52:45;100030.19;;;18.21;59.10
49072;BME280;52656;52.610;10.236;2023-11-19T08:55:11;100041.03;;;17.32;61.37
49072;BME280;52656;52.610;10.236;2023-11-19T08:57:38;100032.38;;;17.62;60.87
49072;BME280;52656;52.610;10.236;2023-11-19T09:00:04;100020.69;;;17.74;60.11
49072;BME280;52656;52.610;10.236;2023-11-19T09:02:32;100028.09;;;17.59;59.94
49072;BME280;52656;52.610;10.236;2023-11-19T09:04:58;100026.53;;;17.00;61.18
49072;BME280;52656;52.610;10.236;2023-11-19T09:07:23;100039.91;;;17.57;59.50
49072;BME280;52656;52.610;10.236;2023-11-19T09:09:48;100040.28;;;17.18;59.53
49072;BME280;52656;52.610;10.236;2023-11-19T09:12:14;100042.31;;;17.93;57.84
49072;BME280;52656;52.610;10.236;2023-11-19T09:14:39;100046.47;;;18.30;57.97
49072;BME280;52656;52.610;10.236;2023-11-19T09:17:04;100055.59;;;18.91;56.28
49072;BME280;52656;52.610;10.236;2023-11-19T09:19:32;100063.25;;;19.17;55.74
49072;BME280;52656;52.610;10.236;2023-11-19T09:21:57;100064.44;;;19.03;56.45
49072;BME280;52656;52.610;10.236;2023-11-19T09:24:23;100067.59;;;19.08;54.69
49072;BME280;52656;52.610;10.236;2023-11-19T09:26:48;100064.75;;;18.68;55.30
49072;BME280;52656;52.610;10.236;2023-11-19T09:29:13;100082.41;;;18.49;54.97
49072;BME280;52656;52.610;10.236;2023-11-19T09:31:39;100086.47;;;19.07;54.84
49072;BME280;52656;52.610;10.236;2023-11-19T09:34:05;100079.38;;;19.17;53.60
49072;BME280;52656;52.610;10.236;2023-11-19T09:36:30;100074.38;;;19.33;53.71
49072;BME280;52656;52.610;10.236;2023-11-19T09:38:56;100077.25;;;19.41;52.71
49072;BME280;52656;52.610;10.236;2023-11-19T09:41:21;100086.03;;;19.84;52.87
49072;BME280;52656;52.610;10.236;2023-11-19T09:43:48;100089.50;;;20.05;52.05
49072;BME280;52656;52.610;10.236;2023-11-19T09:46:13;100074.84;;;19.78;51.28
49072;BME280;52656;52.610;10.236;2023-11-19T09:48:40;100084.78;;;20.38;51.15
49072;BME280;52656;52.610;10.236;2023-11-19T09:51:06;100091.56;;;20.22;50.36
49072;BME280;52656;52.610;10.236;2023-11-19T09:53:32;100089.09;;;19.69;51.10
49072;BME280;52656;52.610;10.236;2023-11-19T09:56:01;100088.31;;;19.88;51.76
49072;BME280;52656;52.610;10.236;2023-11-19T09:58:29;100092.59;;;19.09;52.82
49072;BME280;52656;52.610;10.236;2023-11-19T10:00:54;100091.72;;;19.50;52.06
49072;BME280;52656;52.610;10.236;2023-11-19T10:03:19;100100.34;;;18.70;52.67
49072;BME280;52656;52.610;10.236;2023-11-19T10:05:46;100098.84;;;18.98;53.11
49072;BME280;52656;52.610;10.236;2023-11-19T10:08:11;100097.44;;;19.36;52.54
49072;BME280;52656;52.610;10.236;2023-11-19T10:10:37;100103.34;;;18.56;52.76
49072;BME280;52656;52.610;10.236;2023-11-19T10:13:02;100104.88;;;18.69;53.00
49072;BME280;52656;52.610;10.236;2023-11-19T10:15:35;100098.75;;;18.99;52.92
49072;BME280;52656;52.610;10.236;2023-11-19T10:18:00;100102.38;;;18.45;53.92
49072;BME280;52656;52.610;10.236;2023-11-19T10:20:26;100096.94;;;18.89;53.40
49072;BME280;52656;52.610;10.236;2023-11-19T10:22:55;100105.09;;;18.66;53.67
49072;BME280;52656;52.610;10.236;2023-11-19T10:25:25;100102.41;;;19.19;52.94
49072;BME280;52656;52.610;10.236;2023-11-19T10:27:52;100092.31;;;19.53;52.19
49072;BME280;52656;52.610;10.236;2023-11-19T10:30:21;100085.31;;;19.41;52.38
49072;BME280;52656;52.610;10.236;2023-11-19T10:33:03;100096.19;;;19.40;52.69
49072;BME280;52656;52.610;10.236;2023-11-19T10:35:29;100098.72;;;19.62;52.41
49072;BME280;52656;52.610;10.236;2023-11-19T10:37:54;100084.88;;;19.67;52.14
49072;BME280;52656;52.610;10.236;2023-11-19T10:40:19;100064.72;;;19.51;52.09
49072;BME280;52656;52.610;10.236;2023-11-19T10:42:45;100088.56;;;19.75;52.04
49072;BME280;52656;52.610;10.236;2023-11-19T10:45:23;100100.66;;;19.09;53.17
49072;BME280;52656;52.610;10.236;2023-11-19T10:47:51;100098.72;;;19.20;53.22
49072;BME280;52656;52.610;10.236;2023-11-19T10:50:17;100092.06;;;19.36;53.20
49072;BME280;52656;52.610;10.236;2023-11-19T10:52:42;100089.84;;;19.41;53.51
49072;BME280;52656;52.610;10.236;2023-11-19T10:55:11;100090.44;;;19.44;52.96
49072;BME280;52656;52.610;10.236;2023-11-19T10:57:43;100098.56;;;20.04;51.62
49072;BME280;52656;52.610;10.236;2023-11-19T11:00:14;100082.63;;;19.72;52.15
49072;BME280;52656;52.610;10.236;2023-11-19T11:02:45;100090.88;;;19.90;51.57
49072;BME280;52656;52.610;10.236;2023-11-19T11:05:13;100075.78;;;19.98;50.53
49072;BME280;52656;52.610;10.236;2023-11-19T11:07:40;100083.53;;;20.01;50.61
49072;BME280;52656;52.610;10.236;2023-11-19T11:10:07;100085.38;;;19.91;50.20
49072;BME280;52656;52.610;10.236;2023-11-19T11:12:36;100086.75;;;19.76;50.57
49072;BME280;52656;52.610;10.236;2023-11-19T11:16:25;100075.47;;;19.92;50.48
49072;BME280;52656;52.610;10.236;2023-11-19T11:18:51;100081.78;;;19.71;50.62
49072;BME280;52656;52.610;10.236;2023-11-19T11:21:21;100084.94;;;19.56;50.98
49072;BME280;52656;52.610;10.236;2023-11-19T11:24:06;100080.34;;;19.37;51.13
49072;BME280;52656;52.610;10.236;2023-11-19T11:32:41;100084.75;;;19.47;50.69
49072;BME280;52656;52.610;10.236;2023-11-19T11:36:03;100074.16;;;19.25;50.95
49072;BME280;52656;52.610;10.236;2023-11-19T11:38:23;100085.13;;;19.64;50.40
49072;BME280;52656;52.610;10.236;2023-11-19T11:41:14;100074.44;;;19.83;49.25
49072;BME280;52656;52.610;10.236;2023-11-19T11:43:44;100079.72;;;19.94;49.19
49072;BME280;52656;52.610;10.236;2023-11-19T11:49:05;100095.19;;;20.12;48.68
49072;BME280;52656;52.610;10.236;2023-11-19T11:57:07;100078.38;;;20.19;48.58
49072;BME280;52656;52.610;10.236;2023-11-19T11:59:51;100076.09;;;20.15;48.17
49072;BME280;52656;52.610;10.236;2023-11-19T12:02:19;100069.75;;;19.35;49.10
49072;BME280;52656;52.610;10.236;2023-11-19T12:04:47;100078.81;;;19.84;48.29
49072;BME280;52656;52.610;10.236;2023-11-19T12:07:33;100075.97;;;19.36;48.83
49072;BME280;52656;52.610;10.236;2023-11-19T12:10:09;100080.16;;;19.59;48.58
49072;BME280;52656;52.610;10.236;2023-11-19T12:12:37;100080.22;;;19.17;48.68
49072;BME280;52656;52.610;10.236;2023-11-19T12:15:09;100073.94;;;19.59;48.93
49072;BME280;52656;52.610;10.236;2023-11-19T12:17:43;100071.56;;;19.75;48.90
49072;BME280;52656;52.610;10.236;2023-11-19T12:20:14;100079.16;;;20.00;48.20
49072;BME280;52656;52.610;10.236;2023-11-19T12:22:43;100086.75;;;20.26;47.81
49072;BME280;52656;52.610;10.236;2023-11-19T12:25:10;100077.97;;;20.24;47.91
49072;BME280;52656;52.610;10.236;2023-11-19T12:27:36;100069.69;;;20.06;48.08
49072;BME280;52656;52.610;10.236;2023-11-19T12:30:02;100076.19;;;19.94;48.47
49072;BME280;52656;52.610;10.236;2023-11-19T12:32:43;100076.72;;;19.88;48.34
49072;BME280;52656;52.610;10.236;2023-11-19T12:35:09;100068.16;;;20.03;48.34
49072;BME280;52656;52.610;10.236;2023-11-19T12:37:48;100068.25;;;19.52;48.03
49072;BME280;52656;52.610;10.236;2023-11-19T12:40:15;100070.84;;;19.63;48.34
49072;BME280;52656;52.610;10.236;2023-11-19T12:42:42;100071.97;;;19.61;48.74
49072;BME280;52656;52.610;10.236;2023-11-19T12:45:08;100073.31;;;19.76;48.26
49072;BME280;52656;52.610;10.236;2023-11-19T12:47:36;100082.69;;;19.09;48.69
49072;BME280;52656;52.610;10.236;2023-11-19T12:50:02;100075.19;;;19.55;48.84
49072;BME280;52656;52.610;10.236;2023-11-19T12:52:27;100071.38;;;19.57;48.53
49072;BME280;52656;52.610;10.236;2023-11-19T12:54:52;100073.25;;;19.66;48.29
49072;BME280;52656;52.610;10.236;2023-11-19T12:57:18;100072.41;;;19.14;48.83
49072;BME280;52656;52.610;10.236;2023-11-19T13:00:05;100071.56;;;19.65;48.56